Time;durP1;ratioP1;P1;durP2;ratioP2;P2;SDS_P1;SDS_P2;PMS_P1;PMS_P2;Temp;Humidity;BMP_temperature;BMP_pressure;BME280_temperature;BME280_humidity;BME280_pressure;Samples;Min_cycle;Max_cycle;Signal;HPM_P1;HPM_P2
2022/10/17 00:02:19;;;;;;;1.70;1.48;;;;;;;19.39;55.51;101631.06;5126967;28;20476;-58
2022/10/17 00:04:44;;;;;;;1.88;1.40;;;;;;;19.39;55.02;101627.53;5127188;28;20082;-58
2022/10/17 00:07:09;;;;;;;2.47;1.40;;;;;;;19.38;55.58;101629.38;5142448;27;20023;-58
2022/10/17 00:09:34;;;;;;;1.80;1.50;;;;;;;19.37;55.19;101616.91;5147667;27;20023;-59
2022/10/17 00:12:01;;;;;;;1.52;1.20;;;;;;;19.37;55.53;101619.59;5147363;27;20031;-58
2022/10/17 00:14:26;;;;;;;1.75;1.40;;;;;;;19.37;55.52;101622.28;5147333;27;20024;-58
2022/10/17 00:16:51;;;;;;;1.90;1.70;;;;;;;19.36;55.12;101615.19;5147400;27;20033;-57
2022/10/17 00:19:17;;;;;;;4.22;1.50;;;;;;;19.37;55.04;101616.03;5147966;27;20043;-57
2022/10/17 00:21:42;;;;;;;2.30;1.45;;;;;;;19.36;55.34;101608.94;5147073;27;20031;-57
2022/10/17 00:24:07;;;;;;;1.55;1.35;;;;;;;19.35;55.13;101610.78;5147454;27;20034;-57
2022/10/17 00:26:32;;;;;;;1.85;1.25;;;;;;;19.35;55.38;101610.78;5147246;27;20048;-59
2022/10/17 00:28:58;;;;;;;2.97;1.70;;;;;;;19.35;55.45;101616.19;5146799;27;20023;-58
2022/10/17 00:31:23;;;;;;;1.80;1.58;;;;;;;19.35;55.23;101608.09;5146971;27;20031;-58
2022/10/17 00:33:49;;;;;;;1.67;1.45;;;;;;;19.34;55.32;101611.81;5147321;27;20399;-59
2022/10/17 00:36:17;;;;;;;2.33;1.70;;;;;;;19.34;55.49;101613.66;5147330;27;20046;-58
2022/10/17 00:38:44;;;;;;;1.70;1.40;;;;;;;19.33;55.49;101595.78;5147198;27;20064;-59
2022/10/17 00:41:11;;;;;;;2.08;1.40;;;;;;;19.32;55.11;101600.31;5135903;27;20015;-57
2022/10/17 00:43:53;;;;;;;1.40;1.30;;;;;;;19.28;55.46;101598.09;5126009;28;20036;-57
2022/10/17 00:46:19;;;;;;;1.48;1.20;;;;;;;19.32;55.58;101602.16;5126486;27;20066;-58
2022/10/17 00:48:45;;;;;;;2.08;1.60;;;;;;;19.30;55.12;101588.00;5126276;27;20032;-59
2022/10/17 00:51:11;;;;;;;1.92;1.55;;;;;;;19.32;55.10;101594.91;5126161;28;20027;-59
2022/10/17 00:53:37;;;;;;;2.03;1.55;;;;;;;19.32;55.56;101583.28;5126325;28;20031;-58
2022/10/17 00:56:03;;;;;;;3.08;1.60;;;;;;;19.31;55.13;101581.59;5126109;28;20051;-59
2022/10/17 00:58:28;;;;;;;1.98;1.42;;;;;;;19.32;55.24;101583.28;5125594;28;20027;-56
2022/10/17 01:00:53;;;;;;;1.30;1.20;;;;;;;19.31;55.44;101576.22;5126011;28;20028;-54
2022/10/17 01:03:19;;;;;;;1.88;1.33;;;;;;;19.24;55.23;101565.19;5125751;28;20031;-57
2022/10/17 01:05:45;;;;;;;3.00;1.75;;;;;;;19.30;55.06;101574.53;5129292;27;20034;-58
2022/10/17 01:08:11;;;;;;;2.30;1.73;;;;;;;19.30;55.08;101575.38;5145535;27;20483;-57
2022/10/17 01:10:51;;;;;;;1.38;1.20;;;;;;;19.30;55.45;101578.06;5146235;27;20091;-57
2022/10/17 01:13:23;;;;;;;1.67;1.23;;;;;;;19.29;55.19;101576.38;5144791;27;20035;-57
2022/10/17 01:15:59;;;;;;;1.77;1.40;;;;;;;19.29;55.53;101580.94;5146678;27;20034;-58
2022/10/17 01:18:41;;;;;;;2.58;1.42;;;;;;;19.24;55.40;101570.56;5144778;27;20027;-58
2022/10/17 01:21:12;;;;;;;1.70;1.33;;;;;;;19.28;55.38;101581.91;5144814;27;20399;-58
2022/10/17 01:24:02;;;;;;;1.50;1.27;;;;;;;19.28;55.42;101582.75;5145985;27;20562;-57
2022/10/17 01:26:40;;;;;;;1.95;1.30;;;;;;;19.27;55.24;101581.06;5144982;27;20019;-58
2022/10/17 01:29:31;;;;;;;1.38;1.27;;;;;;;19.20;55.38;101561.13;5144229;27;20027;-58
2022/10/17 01:32:02;;;;;;;2.88;1.60;;;;;;;19.27;55.47;101574.81;5144405;27;20027;-57
2022/10/17 01:34:59;;;;;;;2.60;1.30;;;;;;;19.26;55.44;101575.84;5146023;27;20074;-57
2022/10/17 01:37:31;;;;;;;1.60;1.38;;;;;;;19.23;55.30;101567.03;5136350;27;20036;-58
2022/10/17 01:39:56;;;;;;;1.88;1.35;;;;;;;19.25;55.19;101564.22;5144031;27;20038;-62
2022/10/17 01:42:24;;;;;;;1.65;1.50;;;;;;;19.25;55.39;101568.75;5140954;27;20028;-56
2022/10/17 01:45:02;;;;;;;1.92;1.30;;;;;;;19.25;55.54;101561.50;5125113;28;20031;-56
2022/10/17 01:47:30;;;;;;;2.23;1.53;;;;;;;19.23;55.10;101558.09;5124979;28;20054;-57
2022/10/17 01:50:00;;;;;;;1.50;1.38;;;;;;;19.24;55.27;101554.41;5123690;28;20038;-56
2022/10/17 01:52:28;;;;;;;1.77;1.50;;;;;;;19.23;55.14;101550.84;5124883;28;20073;-58
2022/10/17 01:54:58;;;;;;;1.85;1.30;;;;;;;19.22;55.44;101549.19;5123872;28;20059;-57
2022/10/17 01:57:32;;;;;;;1.80;1.30;;;;;;;19.23;55.15;101536.53;5122989;28;20488;-58
2022/10/17 01:59:58;;;;;;;1.75;1.35;;;;;;;19.23;55.37;101547.31;5123318;28;20031;-56
2022/10/17 02:02:25;;;;;;;1.27;1.17;;;;;;;19.23;55.17;101536.53;5124591;28;20031;-58
2022/10/17 02:04:51;;;;;;;1.52;1.20;;;;;;;19.22;55.08;101538.38;5124808;28;20724;-55
2022/10/17 02:07:17;;;;;;;3.78;2.10;;;;;;;19.10;55.36;101517.22;5137069;27;20078;-57
2022/10/17 02:09:42;;;;;;;1.95;1.45;;;;;;;19.22;55.42;101551.03;5145153;27;20030;-56
2022/10/17 02:12:38;;;;;;;1.77;1.65;;;;;;;19.21;55.30;101534.00;5145152;27;20042;-55
2022/10/17 02:15:09;;;;;;;2.03;1.30;;;;;;;19.21;55.45;101530.47;5124668;28;20032;-55
2022/10/17 02:17:44;;;;;;;1.67;1.23;;;;;;;19.21;55.44;101535.88;5124352;28;20084;-57
2022/10/17 02:20:16;;;;;;;1.85;1.42;;;;;;;19.20;55.16;101529.63;5124476;28;20033;-57
2022/10/17 02:22:51;;;;;;;1.63;1.10;;;;;;;19.20;55.29;101518.84;5123331;28;20830;-54
2022/10/17 02:25:42;;;;;;;1.30;1.17;;;;;;;19.20;55.25;101518.84;5124613;28;20030;-57
2022/10/17 02:28:30;;;;;;;1.70;1.20;;;;;;;19.20;55.43;101523.41;5122583;28;20050;-56
2022/10/17 02:31:15;;;;;;;2.00;1.50;;;;;;;19.18;55.25;101520.00;5122995;28;20050;-57
2022/10/17 02:33:45;;;;;;;1.52;1.30;;;;;;;19.18;55.05;101510.06;5124203;28;20034;-57
2022/10/17 02:36:16;;;;;;;1.40;1.30;;;;;;;19.17;55.25;101508.38;5124386;28;20035;-57
2022/10/17 02:38:42;;;;;;;1.80;1.13;;;;;;;19.18;55.14;101509.22;5122999;28;20097;-56
2022/10/17 02:41:10;;;;;;;1.33;1.20;;;;;;;19.18;55.07;101506.50;5116216;27;20592;-56
2022/10/17 02:43:36;;;;;;;1.85;1.40;;;;;;;19.18;55.11;101498.44;5143123;27;20026;-55
2022/10/17 02:46:02;;;;;;;2.33;1.63;;;;;;;19.17;55.41;101502.97;5143723;27;20037;-57
2022/10/17 02:48:39;;;;;;;1.65;1.30;;;;;;;19.16;55.37;101498.59;5144439;27;20600;-57
2022/10/17 02:51:20;;;;;;;1.45;1.33;;;;;;;19.17;55.27;101485.97;5143523;28;20026;-56
2022/10/17 02:54:04;;;;;;;1.98;1.02;;;;;;;19.16;55.39;101490.50;5143464;28;20030;-56
2022/10/17 02:56:32;;;;;;;2.00;1.55;;;;;;;19.16;54.94;101503.13;5144483;27;20039;-55
2022/10/17 02:58:58;;;;;;;1.70;1.17;;;;;;;19.16;55.27;101506.69;5142785;28;20031;-57
2022/10/17 03:01:24;;;;;;;1.67;1.33;;;;;;;19.16;55.14;101508.53;5143149;28;20027;-57
2022/10/17 03:03:49;;;;;;;3.17;1.50;;;;;;;19.17;55.33;101502.13;5144417;27;20042;-55
2022/10/17 03:06:14;;;;;;;1.55;1.40;;;;;;;19.15;55.36;101502.25;5144685;27;20055;-55
2022/10/17 03:08:40;;;;;;;2.05;1.40;;;;;;;19.16;55.26;101505.84;5144790;28;20034;-53
2022/10/17 03:11:05;;;;;;;1.52;1.42;;;;;;;19.14;55.49;101500.56;5144206;28;20081;-57
2022/10/17 03:13:30;;;;;;;1.60;1.13;;;;;;;19.15;55.29;101498.72;5144124;27;20031;-57
2022/10/17 03:15:56;;;;;;;2.60;1.52;;;;;;;19.14;55.42;101503.28;5144571;28;20023;-55
2022/10/17 03:18:21;;;;;;;1.48;1.33;;;;;;;19.15;55.28;101498.72;5143124;28;20045;-55
2022/10/17 03:20:47;;;;;;;1.52;1.30;;;;;;;19.15;55.12;101498.72;5144492;27;20031;-56
2022/10/17 03:23:12;;;;;;;1.63;1.45;;;;;;;19.14;55.04;101494.34;5144484;28;20479;-55
2022/10/17 03:25:38;;;;;;;1.42;1.27;;;;;;;19.14;55.09;101505.97;5144325;28;20383;-54
2022/10/17 03:28:04;;;;;;;1.58;1.30;;;;;;;19.14;55.42;101507.81;5143938;27;20031;-57
2022/10/17 03:30:30;;;;;;;1.52;1.40;;;;;;;19.14;55.35;101497.88;5145433;27;20084;-56
2022/10/17 03:32:57;;;;;;;1.42;1.30;;;;;;;19.03;55.40;101481.97;5148143;27;20027;-58
2022/10/17 03:35:22;;;;;;;1.33;1.20;;;;;;;19.12;55.33;101505.28;5148541;27;20015;-59
2022/10/17 03:37:47;;;;;;;1.48;1.35;;;;;;;19.10;55.30;101501.06;5148114;27;20019;-59
2022/10/17 03:40:12;;;;;;;1.83;1.40;;;;;;;19.13;55.31;101503.44;5145223;27;20036;-59
2022/10/17 03:42:38;;;;;;;3.17;1.50;;;;;;;19.13;55.03;101500.75;5127441;28;20020;-59
2022/10/17 03:45:03;;;;;;;1.65;1.30;;;;;;;19.11;55.11;101503.56;5127455;28;20047;-58
2022/10/17 03:47:28;;;;;;;1.75;1.20;;;;;;;19.11;55.16;101506.28;5127230;28;20027;-56
2022/10/17 03:49:54;;;;;;;1.42;1.27;;;;;;;19.12;54.83;101497.22;5127481;28;20091;-59
2022/10/17 03:52:19;;;;;;;1.38;1.23;;;;;;;19.12;55.31;101501.75;5127437;28;20044;-59
2022/10/17 03:54:44;;;;;;;1.58;1.40;;;;;;;19.10;55.27;101501.06;5127416;28;20097;-57
2022/10/17 03:57:09;;;;;;;1.20;1.10;;;;;;;19.12;55.45;101499.06;5126692;28;20051;-59
2022/10/17 03:59:35;;;;;;;1.73;1.40;;;;;;;19.11;55.36;101503.56;5127196;28;20031;-59
2022/10/17 04:02:00;;;;;;;1.55;1.30;;;;;;;19.12;55.08;101512.53;5127149;28;20621;-57
2022/10/17 04:04:25;;;;;;;1.35;1.25;;;;;;;19.11;55.35;101502.72;5127146;28;20110;-58
2022/10/17 04:06:50;;;;;;;1.80;1.30;;;;;;;19.10;54.98;101499.19;5137061;27;20016;-59
2022/10/17 04:09:16;;;;;;;1.67;1.40;;;;;;;19.07;55.13;101494.09;5147791;27;20020;-58
2022/10/17 04:11:41;;;;;;;1.33;1.20;;;;;;;19.10;55.19;101503.75;5147367;27;20027;-59
2022/10/17 04:14:06;;;;;;;1.75;1.40;;;;;;;19.11;55.22;101511.66;5147231;27;20592;-58
2022/10/17 04:16:31;;;;;;;1.30;1.20;;;;;;;19.10;55.04;101515.38;5147660;27;20027;-59
2022/10/17 04:18:58;;;;;;;1.67;1.58;;;;;;;19.10;55.34;101514.53;5147434;27;20054;-59
2022/10/17 04:21:25;;;;;;;1.73;1.35;;;;;;;19.10;55.42;101509.13;5145949;27;20031;-59
2022/10/17 04:23:54;;;;;;;1.98;1.45;;;;;;;19.09;55.52;101508.28;5147295;27;20035;-59
2022/10/17 04:26:19;;;;;;;1.73;1.30;;;;;;;19.09;55.11;101507.44;5147157;27;20095;-57
2022/10/17 04:28:45;;;;;;;1.33;1.20;;;;;;;19.09;55.21;101504.75;5146650;27;20027;-57
2022/10/17 04:31:12;;;;;;;1.27;1.02;;;;;;;19.08;55.46;101503.91;5146972;27;20034;-57
2022/10/17 04:33:37;;;;;;;1.52;1.35;;;;;;;19.09;55.03;101504.75;5147158;27;20055;-57
2022/10/17 04:36:09;;;;;;;1.55;1.30;;;;;;;19.08;55.28;101501.22;5147307;27;20056;-55
2022/10/17 04:38:34;;;;;;;2.60;1.55;;;;;;;19.08;55.24;101503.06;5147074;27;20091;-57
2022/10/17 04:41:02;;;;;;;1.98;1.20;;;;;;;19.09;55.26;101512.84;5136950;27;20023;-58
2022/10/17 04:43:28;;;;;;;1.75;1.23;;;;;;;19.07;55.09;101509.44;5124804;28;20032;-58
2022/10/17 04:45:53;;;;;;;2.22;1.38;;;;;;;19.08;55.28;101512.00;5126538;28;20054;-57
2022/10/17 04:48:19;;;;;;;1.48;1.23;;;;;;;19.07;55.02;101510.28;5121796;28;20608;-58
2022/10/17 04:50:58;;;;;;;1.58;1.30;;;;;;;19.08;54.91;101508.47;5126077;28;20051;-57
2022/10/17 04:53:24;;;;;;;1.77;1.58;;;;;;;18.96;55.02;101491.66;5126182;28;20038;-56
2022/10/17 04:55:49;;;;;;;1.45;1.30;;;;;;;19.04;54.98;101510.63;5126274;28;20472;-57
2022/10/17 04:58:14;;;;;;;1.77;1.27;;;;;;;19.08;55.37;101511.16;5125520;28;20107;-58
2022/10/17 05:00:40;;;;;;;1.33;1.23;;;;;;;19.06;54.80;101519.38;5125874;28;20035;-57
2022/10/17 05:03:05;;;;;;;1.60;1.42;;;;;;;18.93;55.04;101497.38;5125357;28;20083;-57
2022/10/17 05:05:30;;;;;;;3.42;1.70;;;;;;;19.03;54.88;101514.31;5125254;28;20027;-54
2022/10/17 05:07:55;;;;;;;1.73;1.50;;;;;;;19.07;55.29;101522.91;5140256;27;20102;-56
2022/10/17 05:10:21;;;;;;;1.77;1.30;;;;;;;19.06;55.04;101526.63;5137173;27;20016;-57
2022/10/17 05:12:47;;;;;;;1.38;1.17;;;;;;;19.05;55.09;101531.16;5145670;27;20047;-57
2022/10/17 05:15:13;;;;;;;2.67;1.52;;;;;;;19.05;55.20;101528.47;5144796;27;20044;-55
2022/10/17 05:17:38;;;;;;;1.38;1.27;;;;;;;19.06;55.34;101526.63;5145535;27;20023;-57
2022/10/17 05:20:04;;;;;;;1.85;1.33;;;;;;;19.04;54.89;101534.03;5145676;27;20027;-56
2022/10/17 05:22:29;;;;;;;2.95;1.50;;;;;;;19.03;55.31;101524.22;5146040;27;20027;-57
2022/10/17 05:24:54;;;;;;;1.38;1.27;;;;;;;19.06;55.09;101538.25;5146064;27;20505;-57
2022/10/17 05:27:20;;;;;;;1.95;1.45;;;;;;;19.06;54.90;101542.78;5133686;27;20049;-57
2022/10/17 05:29:45;;;;;;;1.98;1.52;;;;;;;19.06;55.09;101551.72;5124698;28;20059;-57
2022/10/17 05:32:10;;;;;;;2.10;1.90;;;;;;;19.07;55.59;101552.56;5133166;27;20035;-57
2022/10/17 05:34:35;;;;;;;1.60;1.38;;;;;;;19.07;55.52;101553.41;5145656;27;20023;-57
2022/10/17 05:37:00;;;;;;;1.80;1.45;;;;;;;19.03;55.24;101553.88;5145685;27;20023;-58
2022/10/17 05:39:26;;;;;;;1.77;1.65;;;;;;;18.97;55.42;101548.09;5145809;27;20034;-58
2022/10/17 05:41:51;;;;;;;1.75;1.35;;;;;;;19.08;55.59;101557.81;5127184;27;20028;-57
2022/10/17 05:44:17;;;;;;;1.50;1.40;;;;;;;19.06;55.72;101559.81;5133508;27;20084;-57
2022/10/17 05:46:42;;;;;;;2.45;1.40;;;;;;;19.08;55.74;101556.97;5145889;27;20038;-55
2022/10/17 05:49:09;;;;;;;1.77;1.30;;;;;;;18.94;55.66;101543.00;5144963;27;20055;-57
2022/10/17 05:51:34;;;;;;;2.83;1.50;;;;;;;19.09;55.75;101561.34;5145405;27;20082;-56
2022/10/17 05:53:59;;;;;;;1.85;1.23;;;;;;;19.08;55.58;101552.44;5144905;27;20124;-58
2022/10/17 05:56:25;;;;;;;2.58;1.20;;;;;;;19.09;55.84;101558.66;5145348;27;20047;-58
2022/10/17 05:58:50;;;;;;;1.85;1.48;;;;;;;19.09;55.53;101567.59;5144634;27;20062;-56
2022/10/17 06:01:15;;;;;;;1.85;1.30;;;;;;;19.10;55.73;101571.13;5145510;27;20544;-57
2022/10/17 06:03:41;;;;;;;1.50;1.40;;;;;;;19.09;55.77;101572.13;5144465;27;20425;-57
2022/10/17 06:06:09;;;;;;;1.70;1.50;;;;;;;19.11;55.59;101572.81;5135788;27;20560;-56
2022/10/17 06:08:34;;;;;;;2.25;1.60;;;;;;;19.11;55.81;101567.44;5139362;27;20026;-55
2022/10/17 06:10:59;;;;;;;2.88;1.40;;;;;;;19.09;55.53;101564.06;5144054;27;20019;-55
2022/10/17 06:13:25;;;;;;;1.58;1.38;;;;;;;19.11;55.61;101568.28;5143659;27;20030;-56
2022/10/17 06:15:50;;;;;;;2.25;1.48;;;;;;;19.03;55.83;101557.44;5144436;27;20023;-56
2022/10/17 06:18:15;;;;;;;1.63;1.52;;;;;;;19.02;55.98;101555.72;5143984;27;20044;-57
2022/10/17 06:20:41;;;;;;;2.08;1.70;;;;;;;19.13;56.17;101576.22;5142785;27;20023;-57
2022/10/17 06:23:06;;;;;;;1.90;1.38;;;;;;;19.10;56.19;101576.53;5143889;27;20031;-55
2022/10/17 06:25:32;;;;;;;1.60;1.40;;;;;;;19.12;56.15;101580.78;5144132;27;20046;-55
2022/10/17 06:27:58;;;;;;;1.98;1.50;;;;;;;19.12;55.84;101583.47;5143297;27;20091;-56
2022/10/17 06:30:23;;;;;;;1.42;1.10;;;;;;;19.13;55.66;101582.44;5143721;27;20113;-57
2022/10/17 06:32:48;;;;;;;2.05;1.30;;;;;;;19.11;56.09;101567.44;5143769;27;20035;-57
2022/10/17 06:35:14;;;;;;;1.70;1.60;;;;;;;19.14;55.97;101575.22;5143947;27;20027;-55
2022/10/17 06:37:39;;;;;;;1.50;1.40;;;;;;;19.14;56.18;101577.91;5143781;27;20037;-56
2022/10/17 06:40:07;;;;;;;2.42;1.30;;;;;;;19.14;55.91;101567.97;5143615;27;20061;-56
2022/10/17 06:42:33;;;;;;;1.73;1.55;;;;;;;19.15;55.87;101572.34;5143808;27;20023;-57
2022/10/17 06:44:58;;;;;;;1.52;1.35;;;;;;;19.15;55.98;101590.38;5143564;27;20750;-57
2022/10/17 06:47:23;;;;;;;1.67;1.45;;;;;;;19.16;56.00;101594.78;5143539;27;20082;-57
2022/10/17 06:49:48;;;;;;;1.67;1.33;;;;;;;19.17;56.27;101609.97;5143367;27;20073;-58
2022/10/17 06:52:15;;;;;;;2.00;1.60;;;;;;;19.18;56.17;101614.34;5144447;27;20023;-58
2022/10/17 06:54:41;;;;;;;2.13;1.55;;;;;;;19.18;56.16;101611.66;5144698;27;20023;-58
2022/10/17 06:57:07;;;;;;;1.88;1.63;;;;;;;19.18;56.38;101606.25;5144001;27;20042;-58
2022/10/17 06:59:32;;;;;;;2.10;1.52;;;;;;;19.20;55.79;101612.34;5143626;27;20074;-58
2022/10/17 07:01:57;;;;;;;1.50;1.40;;;;;;;19.20;56.02;101606.97;5144052;27;20052;-58
2022/10/17 07:04:22;;;;;;;1.95;1.50;;;;;;;19.15;56.24;101598.47;5144484;27;20574;-58
2022/10/17 07:06:48;;;;;;;4.00;1.65;;;;;;;19.19;55.89;101603.38;5139525;27;20031;-58
2022/10/17 07:09:13;;;;;;;2.53;1.45;;;;;;;19.20;55.88;101604.28;5147476;27;20041;-59
2022/10/17 07:11:39;;;;;;;2.75;1.60;;;;;;;19.19;55.81;101611.47;5147650;27;20031;-58
2022/10/17 07:14:04;;;;;;;2.85;1.67;;;;;;;19.19;55.78;101616.88;5147211;27;20023;-58
2022/10/17 07:16:29;;;;;;;3.38;1.55;;;;;;;19.21;56.18;101632.91;5148000;27;20023;-58
2022/10/17 07:18:55;;;;;;;1.63;1.40;;;;;;;19.21;56.06;101631.06;5147433;27;20063;-58
2022/10/17 07:21:20;;;;;;;2.03;1.40;;;;;;;19.21;56.00;101632.91;5134199;27;20020;-58
2022/10/17 07:23:46;;;;;;;2.17;1.63;;;;;;;19.10;55.93;101608.88;5126745;28;20015;-58
2022/10/17 07:26:13;;;;;;;2.30;1.65;;;;;;;19.22;55.82;101635.44;5126863;28;20492;-57
2022/10/17 07:28:41;;;;;;;2.80;1.42;;;;;;;19.21;56.00;101633.75;5126251;28;20031;-58
2022/10/17 07:31:09;;;;;;;2.90;1.70;;;;;;;19.21;56.16;101636.44;5125271;28;20247;-58
2022/10/17 07:33:35;;;;;;;2.10;1.75;;;;;;;19.20;56.36;101645.53;5126432;28;20102;-58
2022/10/17 07:36:01;;;;;;;2.33;1.85;;;;;;;19.23;56.23;101649.78;5126736;28;20103;-57
2022/10/17 07:38:27;;;;;;;2.42;1.70;;;;;;;19.24;56.72;101648.75;5126695;28;20059;-52
2022/10/17 07:40:58;;;;;;;3.20;2.30;;;;;;;19.26;56.77;101664.81;5126300;28;20148;-57
2022/10/17 07:43:24;;;;;;;4.70;2.00;;;;;;;19.28;56.84;101668.19;5129953;27;20089;-57
2022/10/17 07:45:49;;;;;;;3.40;1.55;;;;;;;19.21;56.95;101658.03;5138717;27;20027;-57
2022/10/17 07:48:15;;;;;;;2.63;1.50;;;;;;;19.31;57.11;101666.03;5147180;27;20046;-58
2022/10/17 07:50:40;;;;;;;8.07;2.10;;;;;;;19.30;57.03;101653.56;5127530;27;20111;-58
2022/10/17 07:53:05;;;;;;;2.97;1.70;;;;;;;19.27;56.97;101639.53;5126291;28;20369;-58
2022/10/17 07:55:30;;;;;;;3.63;1.45;;;;;;;19.33;57.43;101645.16;5126717;28;20104;-58
2022/10/17 07:57:56;;;;;;;4.05;2.00;;;;;;;19.37;57.03;101645.69;5125738;28;20039;-58
2022/10/17 08:00:21;;;;;;;2.20;1.70;;;;;;;19.40;57.27;101640.00;5137024;27;20034;-59
2022/10/17 08:02:47;;;;;;;4.00;1.80;;;;;;;19.35;57.25;101628.81;5128673;27;20030;-58
2022/10/17 08:05:12;;;;;;;2.85;1.67;;;;;;;19.43;56.94;101640.53;5134889;27;20027;-58
2022/10/17 08:07:37;;;;;;;4.15;1.95;;;;;;;19.40;57.33;101632.75;5135506;27;20135;-58
2022/10/17 08:10:03;;;;;;;11.70;1.92;;;;;;;19.44;56.89;101641.38;5146740;27;20391;-57
2022/10/17 08:12:31;;;;;;;2.75;1.77;;;;;;;19.44;56.90;101649.47;5146577;27;20023;-58
2022/10/17 08:14:56;;;;;;;2.78;1.90;;;;;;;19.43;57.11;101672.91;5127777;27;20019;-58
2022/10/17 08:17:21;;;;;;;3.20;1.60;;;;;;;19.42;56.88;101684.69;5144590;27;20629;-58
2022/10/17 08:19:47;;;;;;;2.80;1.63;;;;;;;19.37;57.13;101680.75;5146481;27;20066;-58
2022/10/17 08:22:12;;;;;;;8.68;2.47;;;;;;;19.41;57.27;101704.59;5146708;27;20031;-58
2022/10/17 08:24:37;;;;;;;3.50;2.00;;;;;;;19.41;57.25;101712.66;5142226;27;20043;-59
2022/10/17 08:27:09;;;;;;;6.53;1.83;;;;;;;19.37;57.31;101711.28;5125613;28;20020;-58
2022/10/17 08:29:35;;;;;;;4.35;2.00;;;;;;;19.40;57.20;101743.31;5124106;28;20035;-58
2022/10/17 08:32:00;;;;;;;2.53;1.70;;;;;;;19.40;56.98;101775.69;5125695;28;20054;-58
2022/10/17 08:34:25;;;;;;;4.82;2.03;;;;;;;19.34;57.29;101775.44;5125590;28;20032;-58
2022/10/17 08:36:50;;;;;;;3.30;2.00;;;;;;;19.35;57.30;101790.63;5126428;27;20102;-58
2022/10/17 08:39:16;;;;;;;1.92;1.67;;;;;;;19.39;57.15;101798.25;5141475;27;20045;-58
2022/10/17 08:41:47;;;;;;;4.18;2.00;;;;;;;19.40;57.34;101796.41;5146392;27;20078;-59
2022/10/17 08:44:37;;;;;;;4.60;2.00;;;;;;;19.38;57.50;101796.56;5146217;27;20151;-59
2022/10/17 08:47:05;;;;;;;2.85;1.98;;;;;;;19.38;57.23;101787.63;5143013;27;20080;-57
2022/10/17 08:49:57;;;;;;;5.53;2.13;;;;;;;19.38;57.37;101785.78;5127561;27;20478;-58
2022/10/17 08:52:39;;;;;;;3.53;2.03;;;;;;;19.37;57.48;101786.78;5142809;27;20490;-58
2022/10/17 08:55:27;;;;;;;5.10;2.45;;;;;;;19.37;57.48;101777.81;5146844;27;20035;-58
2022/10/17 08:57:52;;;;;;;3.80;2.10;;;;;;;19.36;57.16;101798.53;5145179;27;20126;-57
2022/10/17 09:00:19;;;;;;;6.30;2.60;;;;;;;19.36;57.32;101803.09;5146149;27;20754;-58
2022/10/17 09:02:56;;;;;;;4.00;2.40;;;;;;;19.37;57.53;101794.00;5126494;27;20051;-58
2022/10/17 09:05:36;;;;;;;11.18;3.20;;;;;;;19.36;57.57;101768.03;5125774;28;20027;-59
2022/10/17 09:08:02;;;;;;;4.03;2.85;;;;;;;19.35;57.63;101769.88;5145724;27;20023;-58
2022/10/17 09:10:49;;;;;;;6.40;2.70;;;;;;;19.36;57.47;101782.38;5146127;27;20038;-58
2022/10/17 09:13:39;;;;;;;6.72;3.03;;;;;;;19.37;57.66;101791.31;5139237;27;20031;-58
2022/10/17 09:16:22;;;;;;;6.53;2.30;;;;;;;19.39;58.11;101808.19;5125793;28;20380;-58
2022/10/17 09:19:10;;;;;;;4.75;2.65;;;;;;;19.39;57.93;101818.97;5123923;28;20487;-58
2022/10/17 09:22:31;;;;;;;4.33;2.23;;;;;;;19.38;57.88;101853.19;5123969;28;20110;-57
2022/10/17 09:24:58;;;;;;;6.25;2.55;;;;;;;19.39;57.91;101878.31;5042170;28;20051;-56
2022/10/17 09:27:34;;;;;;;4.13;2.60;;;;;;;19.39;57.89;101872.91;5041084;28;20173;-58
2022/10/17 09:30:24;;;;;;;6.07;2.80;;;;;;;19.38;58.29;101833.47;5040791;28;20030;-58
2022/10/17 09:32:50;;;;;;;6.45;2.97;;;;;;;19.33;58.11;101811.50;5041844;28;20041;-58
2022/10/17 09:35:16;;;;;;;7.03;2.88;;;;;;;19.38;58.42;101807.34;5025399;28;20532;-58
2022/10/17 09:37:41;;;;;;;6.28;2.70;;;;;;;19.39;58.46;101798.25;5046460;28;20100;-58
2022/10/17 09:40:17;;;;;;;5.93;2.78;;;;;;;19.26;58.38;101775.34;5045054;28;20044;-59
2022/10/17 09:42:44;;;;;;;8.43;2.70;;;;;;;19.41;58.33;101800.78;5044831;28;20036;-58
2022/10/17 09:45:09;;;;;;;5.43;2.70;;;;;;;19.41;58.33;101806.19;5044702;28;20667;-58
2022/10/17 09:47:40;;;;;;;3.65;2.30;;;;;;;19.37;58.36;101799.38;5059973;28;20040;-56
2022/10/17 09:50:20;;;;;;;5.72;2.50;;;;;;;19.40;58.68;101818.81;5044373;28;20033;-58
2022/10/17 09:52:48;;;;;;;6.25;2.72;;;;;;;19.42;58.63;101842.97;5061121;28;20040;-58
2022/10/17 09:55:27;;;;;;;3.72;2.40;;;;;;;19.41;58.64;101825.06;5044924;28;20037;-57
2022/10/17 09:58:03;;;;;;;4.07;2.47;;;;;;;19.39;58.48;101821.69;5048451;28;20053;-57
2022/10/17 10:00:31;;;;;;;5.95;2.47;;;;;;;19.36;58.66;101847.09;5123242;28;20090;-57
2022/10/17 10:03:17;;;;;;;5.47;2.80;;;;;;;19.41;58.65;101871.78;5123277;28;20027;-57
2022/10/17 10:05:58;;;;;;;4.65;2.63;;;;;;;19.41;58.76;101882.56;5124819;28;20034;-57
2022/10/17 10:08:27;;;;;;;5.60;2.50;;;;;;;19.22;58.45;101852.97;5145070;27;20027;-58
2022/10/17 10:10:59;;;;;;;6.10;3.55;;;;;;;19.33;58.71;101887.84;5123218;28;20028;-57
2022/10/17 10:13:25;;;;;;;6.50;2.83;;;;;;;19.42;58.98;101878.03;5129413;27;20422;-56
2022/10/17 10:15:50;;;;;;;4.68;2.55;;;;;;;19.38;58.65;101852.34;5145311;27;20560;-54
2022/10/17 10:18:29;;;;;;;6.05;3.20;;;;;;;19.42;58.65;101840.28;5143767;27;20030;-56
2022/10/17 10:21:19;;;;;;;6.60;2.53;;;;;;;19.42;58.91;101829.47;5144331;27;20057;-54
2022/10/17 10:24:09;;;;;;;6.57;3.00;;;;;;;19.42;59.06;101824.09;5123483;28;20028;-56
2022/10/17 10:26:45;;;;;;;7.53;3.08;;;;;;;19.43;59.11;101807.75;5122233;28;20024;-57
2022/10/17 10:29:29;;;;;;;5.32;2.60;;;;;;;19.44;58.90;101808.59;5122862;28;20027;-58
2022/10/17 10:31:57;;;;;;;6.38;2.67;;;;;;;19.45;58.86;101812.97;5123591;28;20019;-57
2022/10/17 10:34:30;;;;;;;6.20;2.97;;;;;;;19.18;58.56;101786.88;5123273;28;20032;-57
2022/10/17 10:36:57;;;;;;;5.53;2.47;;;;;;;19.47;58.75;101836.13;5123470;28;20079;-57
2022/10/17 10:39:47;;;;;;;9.05;2.60;;;;;;;19.50;59.05;101856.56;5142473;27;20080;-55
2022/10/17 10:42:17;;;;;;;5.82;2.83;;;;;;;19.48;58.96;101863.94;5143685;27;20027;-57
2022/10/17 10:44:43;;;;;;;6.88;2.92;;;;;;;19.49;59.17;101865.63;5144093;27;20014;-56
2022/10/17 10:47:24;;;;;;;7.03;2.85;;;;;;;19.45;59.61;101861.53;5144408;27;20030;-58
2022/10/17 10:49:52;;;;;;;9.90;3.30;;;;;;;19.51;59.57;101878.97;5143148;27;20022;-58
2022/10/17 10:52:40;;;;;;;8.02;3.38;;;;;;;19.52;59.83;101886.06;5143209;27;20046;-58
2022/10/17 10:55:16;;;;;;;9.20;3.92;;;;;;;19.52;60.01;101886.91;5143226;28;20026;-56
2022/10/17 10:57:43;;;;;;;7.18;3.88;;;;;;;19.47;60.25;101879.28;5142594;28;20050;-58
2022/10/17 11:00:16;;;;;;;4.90;3.13;;;;;;;19.49;59.91;101884.50;5141959;28;20044;-58
2022/10/17 11:03:03;;;;;;;7.35;3.40;;;;;;;19.47;60.63;101890.06;5142407;28;20030;-58
2022/10/17 11:05:34;;;;;;;4.93;2.97;;;;;;;19.55;60.51;101912.75;5142148;28;20046;-58
2022/10/17 11:08:24;;;;;;;4.47;2.53;;;;;;;19.56;60.23;101917.13;5143572;27;20019;-58
2022/10/17 11:11:18;;;;;;;6.80;3.33;;;;;;;19.58;60.52;101917.81;5144230;28;20042;-56
2022/10/17 11:13:52;;;;;;;7.30;3.25;;;;;;;19.58;60.51;101929.50;5134381;27;20031;-57
2022/10/17 11:16:38;;;;;;;6.70;2.78;;;;;;;19.58;60.43;101928.63;5122619;28;20561;-58
2022/10/17 11:19:12;;;;;;;4.68;2.65;;;;;;;19.59;60.25;101939.28;5123329;28;20024;-58
2022/10/17 11:21:46;;;;;;;5.25;2.58;;;;;;;19.45;60.50;101928.94;5122617;28;20016;-57
2022/10/17 11:24:20;;;;;;;5.25;2.45;;;;;;;19.60;60.14;101959.84;5123661;28;20091;-57
2022/10/17 11:26:51;;;;;;;4.53;2.72;;;;;;;19.60;60.48;101957.16;5122293;28;20023;-58
2022/10/17 11:29:16;;;;;;;5.13;2.70;;;;;;;19.61;60.09;101958.03;5121393;28;20016;-56
2022/10/17 11:31:48;;;;;;;4.93;2.65;;;;;;;19.60;60.07;101961.72;5122162;28;20020;-56
2022/10/17 11:34:19;;;;;;;5.30;2.95;;;;;;;19.60;60.10;101967.09;5123280;28;20027;-56
2022/10/17 11:36:47;;;;;;;3.92;2.40;;;;;;;19.59;60.17;101970.81;5122339;28;20019;-57